createdAt,value
2019-01-20T00:02:29.953Z,3.00
2019-01-20T00:05:01.417Z,2.90
2019-01-20T00:07:33.903Z,3.00
2019-01-20T00:10:04.281Z,2.90
2019-01-20T00:12:35.424Z,3.00
2019-01-20T00:15:05.867Z,3.00
2019-01-20T00:17:36.190Z,3.00
2019-01-20T00:20:07.061Z,3.00
2019-01-20T00:22:37.390Z,3.10
2019-01-20T00:25:30.213Z,2.90
2019-01-20T00:28:00.590Z,3.00
2019-01-20T00:30:30.959Z,3.00
2019-01-20T00:33:01.393Z,3.10
2019-01-20T00:35:31.708Z,3.00
2019-01-20T00:38:02.905Z,2.90
2019-01-20T00:40:36.335Z,2.90
2019-01-20T00:43:07.474Z,3.00
2019-01-20T00:45:38.437Z,3.00
2019-01-20T00:48:09.585Z,3.00
2019-01-20T00:50:39.966Z,3.00
2019-01-20T00:53:10.635Z,3.00
2019-01-20T00:55:41.819Z,3.10
2019-01-20T00:58:15.258Z,3.00
2019-01-20T01:00:45.627Z,3.00
2019-01-20T01:03:15.993Z,3.10
2019-01-20T01:05:46.366Z,3.10
2019-01-20T01:08:17.092Z,3.00
2019-01-20T01:10:48.237Z,3.10
2019-01-20T01:13:18.612Z,3.00
2019-01-20T01:16:10.709Z,3.00
2019-01-20T01:18:41.088Z,3.00
2019-01-20T01:21:11.765Z,3.10
2019-01-20T01:23:45.655Z,3.10
2019-01-20T01:26:16.800Z,3.10
2019-01-20T01:28:47.935Z,3.10
2019-01-20T01:31:18.370Z,3.00
2019-01-20T01:33:49.848Z,3.10
2019-01-20T01:36:20.231Z,3.10
2019-01-20T01:38:50.605Z,3.00
2019-01-20T01:41:21.042Z,3.10
2019-01-20T01:43:51.642Z,3.10
2019-01-20T01:46:22.774Z,3.10
2019-01-20T01:48:53.419Z,3.10
2019-01-20T01:51:24.625Z,3.20
2019-01-20T01:53:54.978Z,3.20
2019-01-20T01:56:25.350Z,3.20
2019-01-20T01:58:56.791Z,3.10
2019-01-20T02:01:27.163Z,3.20
2019-01-20T02:03:57.833Z,3.10
2019-01-20T02:06:29.221Z,3.10
2019-01-20T02:09:06.744Z,3.10
2019-01-20T02:11:37.201Z,3.20
2019-01-20T02:14:08.551Z,3.20
2019-01-20T02:16:39.685Z,3.20
2019-01-20T02:19:10.903Z,3.20
2019-01-20T02:21:41.486Z,3.20
2019-01-20T02:24:11.865Z,3.20
2019-01-20T02:26:42.237Z,3.20
2019-01-20T02:29:12.607Z,3.20
2019-01-20T02:31:44.181Z,3.10
2019-01-20T02:34:14.610Z,3.10
2019-01-20T02:36:44.984Z,3.00
2019-01-20T02:39:15.370Z,3.00
2019-01-20T02:41:45.787Z,3.00
2019-01-20T02:44:16.154Z,3.10
2019-01-20T02:46:46.530Z,3.10
2019-01-20T02:49:17.135Z,3.10
2019-01-20T02:51:49.489Z,3.00
2019-01-20T02:54:19.905Z,3.10
2019-01-20T02:56:50.359Z,3.20
2019-01-20T02:59:22.775Z,3.20
2019-01-20T03:01:53.147Z,3.10
2019-01-20T03:04:25.690Z,3.00
2019-01-20T03:06:55.162Z,3.00
2019-01-20T03:09:26.556Z,3.10
2019-01-20T03:12:03.458Z,3.10
2019-01-20T03:14:28.153Z,3.10
2019-01-20T03:16:58.760Z,3.10
2019-01-20T03:19:32.018Z,3.10
2019-01-20T03:22:02.385Z,3.00
2019-01-20T03:24:33.531Z,2.90
2019-01-20T03:27:03.959Z,2.90
2019-01-20T03:29:34.336Z,3.00
2019-01-20T03:32:05.730Z,3.10
2019-01-20T03:34:36.167Z,3.20
2019-01-20T03:37:07.310Z,3.10
2019-01-20T03:39:37.674Z,3.10
2019-01-20T03:42:12.040Z,3.10
2019-01-20T03:44:41.698Z,3.20
2019-01-20T03:47:12.121Z,3.10
2019-01-20T03:49:46.585Z,3.10
2019-01-20T03:52:16.911Z,3.20
2019-01-20T03:54:47.437Z,3.20
2019-01-20T03:57:17.749Z,3.20
2019-01-20T04:02:31.391Z,3.20
2019-01-20T04:05:07.838Z,3.20
2019-01-20T04:07:38.226Z,3.10
2019-01-20T04:10:09.311Z,3.00
2019-01-20T04:12:39.738Z,3.00
2019-01-20T04:15:10.113Z,3.10
2019-01-20T04:17:40.492Z,3.20
2019-01-20T04:20:10.869Z,3.20
2019-01-20T04:22:41.244Z,3.30
2019-01-20T04:25:14.487Z,3.30
2019-01-20T04:27:44.817Z,3.20
2019-01-20T04:30:15.132Z,3.30
2019-01-20T04:32:45.545Z,3.30
2019-01-20T04:35:16.097Z,3.10
2019-01-20T04:37:46.466Z,3.20
2019-01-20T04:40:19.679Z,3.20
2019-01-20T04:42:50.077Z,3.20
2019-01-20T04:45:20.622Z,3.30
2019-01-20T04:47:52.025Z,3.30
2019-01-20T04:50:22.445Z,3.30
2019-01-20T04:52:52.825Z,3.10
2019-01-20T04:55:23.350Z,3.10
2019-01-20T04:57:53.778Z,3.20
2019-01-20T05:00:24.126Z,3.20
2019-01-20T05:03:13.936Z,3.30
2019-01-20T05:05:44.346Z,3.30
2019-01-20T05:08:14.718Z,3.20
2019-01-20T05:10:45.097Z,3.30
2019-01-20T05:13:15.519Z,3.40
2019-01-20T05:15:45.839Z,3.30
2019-01-20T05:18:23.581Z,3.30
2019-01-20T05:20:54.941Z,3.30
2019-01-20T05:23:26.080Z,3.30
2019-01-20T05:25:57.281Z,3.40
2019-01-20T05:28:30.928Z,3.40
2019-01-20T05:31:02.062Z,3.40
2019-01-20T05:33:32.376Z,3.40
2019-01-20T05:36:02.812Z,3.40
2019-01-20T05:38:34.193Z,3.40
2019-01-20T05:41:04.645Z,3.30
2019-01-20T05:43:35.177Z,3.40
2019-01-20T05:46:12.710Z,3.40
2019-01-20T05:48:43.136Z,3.40
2019-01-20T05:51:13.576Z,3.40
2019-01-20T05:53:44.723Z,3.40
2019-01-20T05:56:15.921Z,3.20
2019-01-20T05:58:53.603Z,3.20
2019-01-20T06:01:24.059Z,3.30
2019-01-20T06:03:54.625Z,3.40
2019-01-20T06:06:25.769Z,3.40
2019-01-20T06:08:56.976Z,3.40
2019-01-20T06:11:27.347Z,3.40
2019-01-20T06:13:58.544Z,3.40
2019-01-20T06:16:36.229Z,3.40
2019-01-20T06:19:10.751Z,3.40
2019-01-20T06:21:46.183Z,3.40
2019-01-20T06:24:16.593Z,3.40
2019-01-20T06:26:46.974Z,3.40
2019-01-20T06:29:17.539Z,3.40
2019-01-20T06:31:48.178Z,3.50
2019-01-20T06:34:19.519Z,3.40
2019-01-20T06:36:50.662Z,3.30
2019-01-20T06:39:21.048Z,3.30
2019-01-20T06:41:53.681Z,3.30
2019-01-20T06:44:24.104Z,3.30
2019-01-20T06:46:55.242Z,3.40
2019-01-20T06:49:26.388Z,3.30
2019-01-20T06:51:57.837Z,3.30
2019-01-20T06:54:28.973Z,3.30
2019-01-20T06:57:00.122Z,3.30
2019-01-20T06:59:31.369Z,3.40
2019-01-20T07:02:02.567Z,3.30
2019-01-20T07:04:52.314Z,3.30
2019-01-20T07:07:22.749Z,3.40
2019-01-20T07:09:53.112Z,3.40
2019-01-20T07:12:23.476Z,3.40
2019-01-20T07:14:54.665Z,3.40
2019-01-20T07:17:27.093Z,3.40
2019-01-20T07:19:58.488Z,3.40
2019-01-20T07:22:31.996Z,3.40
2019-01-20T07:25:21.799Z,3.40
2019-01-20T07:27:53.195Z,3.40
2019-01-20T07:30:23.515Z,3.40
2019-01-20T07:32:53.964Z,3.50
2019-01-20T07:35:24.410Z,3.50
2019-01-20T07:38:15.179Z,3.50
2019-01-20T07:40:45.602Z,3.50
2019-01-20T07:43:17.234Z,3.60
2019-01-20T07:46:08.336Z,3.60
2019-01-20T07:48:38.712Z,3.60
2019-01-20T07:51:09.103Z,3.60
2019-01-20T07:53:39.466Z,3.60
2019-01-20T07:56:09.845Z,3.60
2019-01-20T07:58:40.225Z,3.60
2019-01-20T08:01:10.803Z,3.60
2019-01-20T08:03:41.223Z,3.60
2019-01-20T08:06:11.605Z,3.60
2019-01-20T08:11:23.734Z,3.50
2019-01-20T08:13:54.168Z,3.50
2019-01-20T08:16:44.107Z,3.50
2019-01-20T08:19:14.544Z,3.40
2019-01-20T08:21:45.680Z,3.40
2019-01-20T08:24:16.827Z,3.40
2019-01-20T08:26:48.122Z,3.40
2019-01-20T08:29:18.368Z,3.50
2019-01-20T08:31:48.705Z,3.50
2019-01-20T08:34:19.153Z,3.50
2019-01-20T08:36:50.287Z,3.40
2019-01-20T08:39:21.471Z,3.40
2019-01-20T08:41:53.897Z,3.40
2019-01-20T08:44:24.270Z,3.40
2019-01-20T08:46:54.979Z,3.40
2019-01-20T08:49:26.376Z,3.40
2019-01-20T08:51:58.784Z,3.40
2019-01-20T08:54:29.154Z,3.40
2019-01-20T08:56:59.598Z,3.40
2019-01-20T08:59:32.235Z,3.50
2019-01-20T09:02:03.780Z,3.40
2019-01-20T09:04:34.932Z,3.40
2019-01-20T09:07:06.189Z,3.40
2019-01-20T09:09:36.556Z,3.30
2019-01-20T09:12:06.942Z,3.40
2019-01-20T09:14:37.328Z,3.40
2019-01-20T09:17:07.692Z,3.40
2019-01-20T09:19:38.139Z,3.50
2019-01-20T09:22:08.523Z,3.40
2019-01-20T09:24:38.841Z,3.50
2019-01-20T09:27:09.269Z,3.40
2019-01-20T09:29:40.896Z,3.50
2019-01-20T09:32:12.295Z,3.50
2019-01-20T09:34:43.741Z,3.40
2019-01-20T09:37:14.379Z,3.40
2019-01-20T09:39:45.701Z,3.50
2019-01-20T09:42:16.078Z,3.50
2019-01-20T09:44:46.696Z,3.50
2019-01-20T09:47:17.420Z,3.50
2019-01-20T09:49:47.986Z,3.60
2019-01-20T09:52:18.367Z,3.50
2019-01-20T09:54:49.573Z,3.60
2019-01-20T09:57:19.886Z,3.50
2019-01-20T09:59:51.473Z,3.50
2019-01-20T10:02:21.851Z,3.50
2019-01-20T10:04:52.220Z,3.50
2019-01-20T10:07:22.887Z,3.50
2019-01-20T10:09:53.972Z,3.60
2019-01-20T10:12:24.343Z,3.60
2019-01-20T10:14:55.509Z,3.50
2019-01-20T10:17:26.659Z,3.40
2019-01-20T10:19:57.028Z,3.50
2019-01-20T10:22:48.883Z,3.50
2019-01-20T10:25:19.200Z,3.50
2019-01-20T10:27:49.817Z,3.40
2019-01-20T10:33:10.711Z,3.50
2019-01-20T10:35:43.781Z,3.60
2019-01-20T10:38:15.918Z,3.60
2019-01-20T10:40:46.572Z,3.60
2019-01-20T10:43:17.658Z,3.60
2019-01-20T10:45:48.103Z,3.60
2019-01-20T10:48:18.677Z,3.70
2019-01-20T10:50:49.879Z,3.70
2019-01-20T10:53:20.261Z,3.70
2019-01-20T10:55:50.761Z,3.60
2019-01-20T10:58:21.082Z,3.60
2019-01-20T11:00:51.523Z,3.60
2019-01-20T11:03:22.873Z,3.70
2019-01-20T11:05:54.265Z,3.70
2019-01-20T11:08:24.885Z,3.80
2019-01-20T11:10:55.262Z,3.70
2019-01-20T11:13:25.636Z,3.70
2019-01-20T11:15:56.024Z,3.70
2019-01-20T11:18:26.339Z,3.70
2019-01-20T11:20:56.771Z,3.80
2019-01-20T11:23:27.147Z,3.70
2019-01-20T11:25:57.453Z,3.80
2019-01-20T11:28:28.889Z,3.70
2019-01-20T11:30:59.974Z,3.70
2019-01-20T11:33:30.538Z,3.70
2019-01-20T11:36:01.001Z,3.80
2019-01-20T11:38:32.140Z,3.80
2019-01-20T11:41:05.338Z,3.80
2019-01-20T11:43:36.445Z,3.70
2019-01-20T11:46:06.832Z,3.70
2019-01-20T11:48:37.217Z,3.80
2019-01-20T11:51:07.646Z,3.80
2019-01-20T11:53:38.039Z,3.80
2019-01-20T11:56:14.793Z,3.80
2019-01-20T11:58:47.222Z,3.90
2019-01-20T12:01:17.965Z,3.90
2019-01-20T12:03:49.108Z,3.70
2019-01-20T12:06:22.416Z,3.60
2019-01-20T12:08:53.561Z,3.70
2019-01-20T12:11:24.007Z,3.70
2019-01-20T12:13:54.386Z,3.80
2019-01-20T12:16:25.283Z,3.80
2019-01-20T12:18:55.660Z,3.80
2019-01-20T12:21:26.035Z,3.80
2019-01-20T12:23:56.467Z,3.80
2019-01-20T12:26:33.030Z,3.80
2019-01-20T12:29:03.473Z,3.70
2019-01-20T12:31:53.300Z,3.70
2019-01-20T12:34:24.488Z,3.70
2019-01-20T12:36:54.866Z,3.70
2019-01-20T12:39:25.445Z,3.60
2019-01-20T12:41:55.876Z,3.60
2019-01-20T12:44:31.582Z,3.60
2019-01-20T12:47:01.506Z,3.50
2019-01-20T12:49:32.589Z,3.60
2019-01-20T12:52:10.173Z,3.60
2019-01-20T12:54:40.741Z,3.60
2019-01-20T12:57:11.126Z,3.60
2019-01-20T12:59:41.579Z,3.70
2019-01-20T13:02:18.143Z,3.60
2019-01-20T13:04:56.507Z,3.70
2019-01-20T13:07:26.342Z,3.70
2019-01-20T13:09:56.661Z,3.70
2019-01-20T13:12:27.048Z,3.70
2019-01-20T13:14:57.640Z,3.70
2019-01-20T13:17:28.014Z,3.80
2019-01-20T13:19:58.338Z,3.70
2019-01-20T13:22:28.967Z,3.70
2019-01-20T13:24:59.520Z,3.70
2019-01-20T13:27:30.712Z,3.60
2019-01-20T13:30:03.320Z,3.60
2019-01-20T13:32:33.636Z,3.70
2019-01-20T13:35:04.075Z,3.70
2019-01-20T13:37:34.762Z,3.80
2019-01-20T13:40:05.321Z,3.70
2019-01-20T13:42:35.690Z,3.60
2019-01-20T13:45:06.075Z,3.50
2019-01-20T13:47:38.746Z,3.50
2019-01-20T13:50:09.129Z,3.60
2019-01-20T13:52:39.813Z,3.60
2019-01-20T13:55:30.571Z,3.60
2019-01-20T13:58:01.027Z,3.60
2019-01-20T14:00:31.349Z,3.60
2019-01-20T14:03:01.940Z,3.60
2019-01-20T14:05:32.332Z,3.50
2019-01-20T14:08:03.764Z,3.60
2019-01-20T14:10:40.283Z,3.60
2019-01-20T14:13:10.726Z,3.60
2019-01-20T14:15:41.874Z,3.60
2019-01-20T14:18:12.228Z,3.60
2019-01-20T14:20:45.677Z,3.50
2019-01-20T14:23:16.235Z,3.60
2019-01-20T14:25:46.645Z,3.60
2019-01-20T14:28:17.786Z,3.60
2019-01-20T14:30:48.928Z,3.50
2019-01-20T14:33:20.167Z,3.60
2019-01-20T14:38:35.731Z,3.50
2019-01-20T14:41:06.065Z,3.50
2019-01-20T14:43:37.414Z,3.40
2019-01-20T14:46:09.852Z,3.40
2019-01-20T14:48:40.412Z,3.50
2019-01-20T14:51:30.219Z,3.40
2019-01-20T14:54:00.594Z,3.60
2019-01-20T14:56:31.155Z,3.60
2019-01-20T14:59:01.535Z,3.50
2019-01-20T15:01:32.751Z,3.60
2019-01-20T15:04:03.191Z,3.60
2019-01-20T15:06:34.278Z,3.40
2019-01-20T15:09:04.842Z,3.40
2019-01-20T15:11:35.273Z,3.50
2019-01-20T15:14:05.595Z,3.50
2019-01-20T15:16:35.975Z,3.50
2019-01-20T15:19:06.590Z,3.50
2019-01-20T15:21:36.965Z,3.50
2019-01-20T15:24:11.677Z,3.60
2019-01-20T15:26:42.053Z,3.60
2019-01-20T15:29:13.196Z,3.40
2019-01-20T15:31:43.667Z,3.40
2019-01-20T15:34:14.044Z,3.40
2019-01-20T15:36:44.420Z,3.30
2019-01-20T15:39:14.869Z,3.40
2019-01-20T15:41:45.233Z,3.50
2019-01-20T15:44:16.370Z,3.50
2019-01-20T15:46:46.821Z,3.50
2019-01-20T15:49:17.971Z,3.40
2019-01-20T15:51:48.417Z,3.40
2019-01-20T15:54:18.798Z,3.40
2019-01-20T15:56:49.191Z,3.50
2019-01-20T15:59:25.703Z,3.50
2019-01-20T16:01:56.909Z,3.60
2019-01-20T16:04:28.326Z,3.60
2019-01-20T16:06:58.639Z,3.60
2019-01-20T16:09:29.820Z,3.60
2019-01-20T16:12:00.210Z,3.60
2019-01-20T16:14:34.615Z,3.60
2019-01-20T16:17:05.239Z,3.60
2019-01-20T16:19:37.665Z,3.50
2019-01-20T16:22:09.013Z,3.50
2019-01-20T16:24:39.438Z,3.60
2019-01-20T16:27:09.824Z,3.60
2019-01-20T16:29:40.254Z,3.60
2019-01-20T16:32:31.408Z,3.60
2019-01-20T16:35:01.098Z,3.60
2019-01-20T16:37:34.290Z,3.40
2019-01-20T16:40:04.724Z,3.40
2019-01-20T16:42:35.381Z,3.40
2019-01-20T16:45:07.806Z,3.50
2019-01-20T16:47:41.150Z,3.40
2019-01-20T16:50:12.724Z,3.50
2019-01-20T16:52:43.156Z,3.50
2019-01-20T16:55:13.469Z,3.60
2019-01-20T16:57:51.262Z,3.60
2019-01-20T17:00:40.686Z,3.50
2019-01-20T17:03:12.140Z,3.30
2019-01-20T17:05:43.294Z,3.30
2019-01-20T17:08:14.375Z,3.40
2019-01-20T17:11:05.948Z,3.40
2019-01-20T17:13:36.511Z,3.40
2019-01-20T17:16:06.842Z,3.50
2019-01-20T17:18:37.473Z,3.40
2019-01-20T17:21:07.841Z,3.40
2019-01-20T17:23:38.221Z,3.40
2019-01-20T17:26:08.641Z,3.40
2019-01-20T17:28:39.043Z,3.30
2019-01-20T17:31:10.183Z,3.40
2019-01-20T17:33:41.382Z,3.40
2019-01-20T17:36:11.938Z,3.40
2019-01-20T17:38:42.503Z,3.50
2019-01-20T17:41:14.720Z,3.40
2019-01-20T17:44:04.723Z,3.40
2019-01-20T17:46:35.325Z,3.30
2019-01-20T17:49:05.727Z,3.50
2019-01-20T17:51:36.105Z,3.50
2019-01-20T17:54:06.501Z,3.50
2019-01-20T17:56:36.917Z,3.50
2019-01-20T17:59:07.239Z,3.50
2019-01-20T18:01:37.808Z,3.50
2019-01-20T18:04:08.585Z,3.30
2019-01-20T18:06:39.919Z,3.40
2019-01-20T18:09:10.301Z,3.40
2019-01-20T18:11:46.873Z,3.40
2019-01-20T18:14:24.619Z,3.50
2019-01-20T18:16:55.780Z,3.40
2019-01-20T18:19:27.179Z,3.40
2019-01-20T18:21:59.805Z,3.40
2019-01-20T18:24:30.980Z,3.40
2019-01-20T18:27:03.731Z,3.40
2019-01-20T18:29:32.700Z,3.50
2019-01-20T18:32:03.130Z,3.50
2019-01-20T18:34:33.520Z,3.30
2019-01-20T18:37:05.941Z,3.40
2019-01-20T18:39:37.400Z,3.40
2019-01-20T18:42:08.756Z,3.40
2019-01-20T18:44:39.898Z,3.40
2019-01-20T18:47:10.531Z,3.40
2019-01-20T18:52:23.448Z,3.40
2019-01-20T18:54:54.101Z,3.40
2019-01-20T18:57:25.244Z,3.50
2019-01-20T18:59:56.451Z,3.40
2019-01-20T19:02:26.837Z,3.40
2019-01-20T19:04:57.198Z,3.40
2019-01-20T19:07:28.639Z,3.30
2019-01-20T19:10:20.430Z,3.30
2019-01-20T19:12:51.050Z,3.30
2019-01-20T19:15:22.206Z,3.20
2019-01-20T19:17:52.580Z,3.20
2019-01-20T19:20:26.121Z,3.20
2019-01-20T19:22:57.475Z,3.20
2019-01-20T19:25:27.836Z,3.10
2019-01-20T19:28:03.380Z,3.20
2019-01-20T19:30:33.814Z,3.20
2019-01-20T19:33:04.187Z,3.30
2019-01-20T19:35:34.552Z,3.30
2019-01-20T19:38:04.933Z,3.20
2019-01-20T19:40:35.307Z,3.10
2019-01-20T19:43:05.626Z,3.00
2019-01-20T19:45:36.067Z,3.10
2019-01-20T19:48:15.687Z,2.90
2019-01-20T19:50:38.845Z,2.90
2019-01-20T19:53:09.994Z,2.90
2019-01-20T19:55:40.604Z,2.90
2019-01-20T19:58:11.805Z,3.00
2019-01-20T20:00:43.221Z,3.00
2019-01-20T20:03:14.562Z,2.90
2019-01-20T20:05:45.783Z,2.90
2019-01-20T20:08:16.099Z,2.90
2019-01-20T20:10:46.760Z,2.90
2019-01-20T20:13:17.909Z,3.00
2019-01-20T20:15:48.984Z,3.00
2019-01-20T20:18:23.526Z,3.00
2019-01-20T20:20:54.941Z,2.90
2019-01-20T20:23:25.311Z,3.00
2019-01-20T20:25:55.689Z,3.20
2019-01-20T20:28:26.078Z,3.00
2019-01-20T20:30:56.936Z,3.00
2019-01-20T20:33:28.080Z,2.90
2019-01-20T20:35:59.214Z,3.00
2019-01-20T20:38:30.393Z,2.80
2019-01-20T20:41:00.776Z,2.80
2019-01-20T20:43:31.167Z,2.90
2019-01-20T20:46:03.637Z,2.90
2019-01-20T20:48:36.054Z,2.90
2019-01-20T20:51:06.438Z,2.90
2019-01-20T20:53:38.893Z,2.90
2019-01-20T20:56:09.461Z,2.90
2019-01-20T20:58:40.036Z,2.90
2019-01-20T21:01:11.213Z,2.90
2019-01-20T21:03:41.538Z,2.90
2019-01-20T21:06:12.934Z,2.90
2019-01-20T21:08:43.287Z,2.90
2019-01-20T21:11:14.435Z,2.90
2019-01-20T21:13:45.054Z,2.90
2019-01-20T21:16:16.241Z,3.00
2019-01-20T21:18:50.712Z,3.00
2019-01-20T21:21:21.149Z,3.10
2019-01-20T21:23:53.309Z,3.10
2019-01-20T21:26:23.748Z,3.10
2019-01-20T21:28:54.902Z,3.10
2019-01-20T21:31:25.350Z,3.10
2019-01-20T21:33:55.720Z,2.80
2019-01-20T21:36:26.092Z,2.80
2019-01-20T21:38:56.476Z,2.80
2019-01-20T21:41:26.853Z,2.80
2019-01-20T21:43:57.267Z,2.90
2019-01-20T21:46:27.645Z,2.90
2019-01-20T21:48:58.015Z,2.80
2019-01-20T21:51:28.436Z,2.90
2019-01-20T21:53:58.806Z,2.80
2019-01-20T21:56:51.205Z,2.80
2019-01-20T21:59:22.544Z,2.80
2019-01-20T22:01:54.706Z,2.80
2019-01-20T22:04:25.930Z,2.70
2019-01-20T22:06:56.312Z,2.70
2019-01-20T22:09:26.694Z,2.70
2019-01-20T22:11:57.142Z,2.90
2019-01-20T22:14:29.612Z,2.90
2019-01-20T22:17:00.756Z,2.80
2019-01-20T22:19:31.142Z,2.80
2019-01-20T22:22:01.561Z,2.80
2019-01-20T22:24:51.305Z,2.70
2019-01-20T22:27:21.727Z,2.70
2019-01-20T22:29:52.935Z,2.60
2019-01-20T22:32:23.321Z,2.60
2019-01-20T22:34:53.704Z,2.60
2019-01-20T22:37:24.065Z,2.60
2019-01-20T22:39:54.799Z,2.40
2019-01-20T22:42:25.115Z,2.40
2019-01-20T22:44:56.272Z,2.40
2019-01-20T22:47:27.402Z,2.40
2019-01-20T22:49:58.545Z,2.40
2019-01-20T22:52:28.899Z,2.40
2019-01-20T22:55:00.252Z,2.40
2019-01-20T22:57:30.460Z,2.40
2019-01-20T23:00:02.045Z,2.30
2019-01-20T23:02:51.792Z,2.30
2019-01-20T23:05:22.179Z,2.20
2019-01-20T23:10:35.546Z,2.20
2019-01-20T23:13:05.986Z,2.10
2019-01-20T23:15:56.751Z,2.10
2019-01-20T23:18:27.124Z,2.20
2019-01-20T23:20:57.449Z,2.20
2019-01-20T23:23:27.891Z,2.10
2019-01-20T23:25:58.298Z,2.00
2019-01-20T23:28:28.669Z,2.00
2019-01-20T23:31:06.420Z,1.80
2019-01-20T23:33:36.807Z,1.90
2019-01-20T23:36:07.327Z,2.10
2019-01-20T23:38:37.576Z,2.00
2019-01-20T23:41:07.896Z,1.90
2019-01-20T23:43:38.266Z,1.90
2019-01-20T23:46:08.690Z,2.00
2019-01-20T23:48:39.067Z,2.10
2019-01-20T23:51:09.385Z,1.90
2019-01-20T23:53:39.862Z,1.90
2019-01-20T23:56:29.557Z,1.90
2019-01-20T23:59:00.000Z,1.90
